sensor_id;sensor_type;location;lat;lon;timestamp;P1;durP1;ratioP1;P2;durP2;ratioP2
55706;SDS011;41608;45.384;20.394;2022-09-01T00:01:26;10.70;;;8.43;;
55706;SDS011;41608;45.384;20.394;2022-09-01T00:03:53;13.95;;;9.18;;
55706;SDS011;41608;45.384;20.394;2022-09-01T00:06:21;9.13;;;7.35;;
55706;SDS011;41608;45.384;20.394;2022-09-01T00:08:48;14.32;;;8.77;;
55706;SDS011;41608;45.384;20.394;2022-09-01T00:11:14;10.57;;;8.23;;
55706;SDS011;41608;45.384;20.394;2022-09-01T00:13:41;11.18;;;8.65;;
55706;SDS011;41608;45.384;20.394;2022-09-01T00:16:07;11.27;;;7.65;;
55706;SDS011;41608;45.384;20.394;2022-09-01T00:18:33;10.80;;;8.10;;
55706;SDS011;41608;45.384;20.394;2022-09-01T00:21:00;11.55;;;8.07;;
55706;SDS011;41608;45.384;20.394;2022-09-01T00:23:26;12.68;;;8.80;;
55706;SDS011;41608;45.384;20.394;2022-09-01T00:25:54;11.60;;;8.93;;
55706;SDS011;41608;45.384;20.394;2022-09-01T00:28:20;10.38;;;7.32;;
55706;SDS011;41608;45.384;20.394;2022-09-01T00:30:46;10.95;;;7.35;;
55706;SDS011;41608;45.384;20.394;2022-09-01T00:33:12;11.45;;;8.43;;
55706;SDS011;41608;45.384;20.394;2022-09-01T00:35:38;11.13;;;9.10;;
55706;SDS011;41608;45.384;20.394;2022-09-01T00:38:04;11.52;;;8.30;;
55706;SDS011;41608;45.384;20.394;2022-09-01T00:40:31;11.93;;;8.65;;
55706;SDS011;41608;45.384;20.394;2022-09-01T00:42:57;11.23;;;9.20;;
55706;SDS011;41608;45.384;20.394;2022-09-01T00:45:24;11.60;;;8.05;;
55706;SDS011;41608;45.384;20.394;2022-09-01T00:47:51;9.00;;;7.53;;
55706;SDS011;41608;45.384;20.394;2022-09-01T00:50:18;10.18;;;8.43;;
55706;SDS011;41608;45.384;20.394;2022-09-01T00:52:49;11.63;;;7.47;;
55706;SDS011;41608;45.384;20.394;2022-09-01T00:55:29;11.38;;;7.93;;
55706;SDS011;41608;45.384;20.394;2022-09-01T00:57:56;12.98;;;8.80;;
55706;SDS011;41608;45.384;20.394;2022-09-01T01:00:26;12.82;;;9.00;;
55706;SDS011;41608;45.384;20.394;2022-09-01T01:02:53;10.25;;;7.97;;
55706;SDS011;41608;45.384;20.394;2022-09-01T01:05:26;9.48;;;7.60;;
55706;SDS011;41608;45.384;20.394;2022-09-01T01:07:57;10.82;;;8.70;;
55706;SDS011;41608;45.384;20.394;2022-09-01T01:10:25;13.27;;;8.57;;
55706;SDS011;41608;45.384;20.394;2022-09-01T01:12:53;11.15;;;8.88;;
55706;SDS011;41608;45.384;20.394;2022-09-01T01:15:19;9.35;;;7.95;;
55706;SDS011;41608;45.384;20.394;2022-09-01T01:17:45;11.52;;;8.30;;
55706;SDS011;41608;45.384;20.394;2022-09-01T01:20:11;10.95;;;7.95;;
55706;SDS011;41608;45.384;20.394;2022-09-01T01:30:42;15.60;;;9.27;;
55706;SDS011;41608;45.384;20.394;2022-09-01T01:33:09;11.80;;;8.60;;
55706;SDS011;41608;45.384;20.394;2022-09-01T01:35:35;10.15;;;8.52;;
55706;SDS011;41608;45.384;20.394;2022-09-01T01:38:03;19.65;;;8.98;;
55706;SDS011;41608;45.384;20.394;2022-09-01T01:40:32;11.27;;;8.52;;
55706;SDS011;41608;45.384;20.394;2022-09-01T01:42:58;11.48;;;9.13;;
55706;SDS011;41608;45.384;20.394;2022-09-01T01:45:27;10.00;;;8.57;;
55706;SDS011;41608;45.384;20.394;2022-09-01T01:47:54;9.70;;;7.63;;
55706;SDS011;41608;45.384;20.394;2022-09-01T01:50:22;10.63;;;7.82;;
55706;SDS011;41608;45.384;20.394;2022-09-01T01:52:49;10.13;;;8.10;;
55706;SDS011;41608;45.384;20.394;2022-09-01T01:55:15;11.48;;;8.30;;
55706;SDS011;41608;45.384;20.394;2022-09-01T01:57:44;10.95;;;8.70;;
55706;SDS011;41608;45.384;20.394;2022-09-01T02:00:14;11.57;;;8.32;;
55706;SDS011;41608;45.384;20.394;2022-09-01T02:02:44;11.13;;;7.60;;
55706;SDS011;41608;45.384;20.394;2022-09-01T02:05:17;12.45;;;9.05;;
55706;SDS011;41608;45.384;20.394;2022-09-01T02:07:48;9.65;;;8.65;;
55706;SDS011;41608;45.384;20.394;2022-09-01T02:10:15;10.63;;;8.90;;
55706;SDS011;41608;45.384;20.394;2022-09-01T02:12:42;18.75;;;8.73;;
55706;SDS011;41608;45.384;20.394;2022-09-01T02:15:08;13.02;;;8.95;;
55706;SDS011;41608;45.384;20.394;2022-09-01T02:17:37;12.77;;;9.13;;
55706;SDS011;41608;45.384;20.394;2022-09-01T02:20:04;14.20;;;9.38;;
55706;SDS011;41608;45.384;20.394;2022-09-01T02:22:33;11.30;;;7.80;;
55706;SDS011;41608;45.384;20.394;2022-09-01T02:25:02;13.23;;;7.75;;
55706;SDS011;41608;45.384;20.394;2022-09-01T02:27:31;10.73;;;8.85;;
55706;SDS011;41608;45.384;20.394;2022-09-01T02:29:59;11.57;;;8.70;;
55706;SDS011;41608;45.384;20.394;2022-09-01T02:32:26;11.30;;;8.90;;
55706;SDS011;41608;45.384;20.394;2022-09-01T02:34:52;12.10;;;8.10;;
55706;SDS011;41608;45.384;20.394;2022-09-01T02:37:21;9.77;;;8.60;;
55706;SDS011;41608;45.384;20.394;2022-09-01T02:39:50;9.80;;;8.07;;
55706;SDS011;41608;45.384;20.394;2022-09-01T02:42:21;12.05;;;8.80;;
55706;SDS011;41608;45.384;20.394;2022-09-01T02:44:50;13.32;;;8.73;;
55706;SDS011;41608;45.384;20.394;2022-09-01T02:47:19;11.25;;;8.60;;
55706;SDS011;41608;45.384;20.394;2022-09-01T02:49:47;10.88;;;8.43;;
55706;SDS011;41608;45.384;20.394;2022-09-01T02:52:13;8.48;;;7.10;;
55706;SDS011;41608;45.384;20.394;2022-09-01T02:54:42;11.45;;;9.10;;
55706;SDS011;41608;45.384;20.394;2022-09-01T02:57:14;12.68;;;8.13;;
55706;SDS011;41608;45.384;20.394;2022-09-01T02:59:40;10.13;;;7.70;;
55706;SDS011;41608;45.384;20.394;2022-09-01T03:02:07;13.18;;;8.25;;
55706;SDS011;41608;45.384;20.394;2022-09-01T03:04:35;10.52;;;7.85;;
55706;SDS011;41608;45.384;20.394;2022-09-01T03:07:03;12.20;;;8.60;;
55706;SDS011;41608;45.384;20.394;2022-09-01T03:09:29;10.60;;;9.00;;
55706;SDS011;41608;45.384;20.394;2022-09-01T03:11:59;10.38;;;8.20;;
55706;SDS011;41608;45.384;20.394;2022-09-01T03:14:25;12.60;;;8.55;;
55706;SDS011;41608;45.384;20.394;2022-09-01T03:16:54;10.13;;;8.25;;
55706;SDS011;41608;45.384;20.394;2022-09-01T03:19:21;12.32;;;8.25;;
55706;SDS011;41608;45.384;20.394;2022-09-01T03:21:47;10.48;;;8.30;;
55706;SDS011;41608;45.384;20.394;2022-09-01T03:24:13;11.48;;;9.05;;
55706;SDS011;41608;45.384;20.394;2022-09-01T03:26:41;14.02;;;9.98;;
55706;SDS011;41608;45.384;20.394;2022-09-01T03:29:07;14.10;;;10.13;;
55706;SDS011;41608;45.384;20.394;2022-09-01T03:31:33;14.40;;;9.85;;
55706;SDS011;41608;45.384;20.394;2022-09-01T03:34:00;11.07;;;9.35;;
55706;SDS011;41608;45.384;20.394;2022-09-01T03:36:27;13.05;;;9.32;;
55706;SDS011;41608;45.384;20.394;2022-09-01T03:38:54;14.45;;;10.32;;
55706;SDS011;41608;45.384;20.394;2022-09-01T03:41:22;13.52;;;10.63;;
55706;SDS011;41608;45.384;20.394;2022-09-01T03:43:49;17.38;;;11.95;;
55706;SDS011;41608;45.384;20.394;2022-09-01T03:46:15;15.90;;;10.90;;
55706;SDS011;41608;45.384;20.394;2022-09-01T03:48:53;12.65;;;10.80;;
55706;SDS011;41608;45.384;20.394;2022-09-01T03:51:22;16.20;;;11.32;;
55706;SDS011;41608;45.384;20.394;2022-09-01T03:53:52;17.27;;;10.68;;
55706;SDS011;41608;45.384;20.394;2022-09-01T03:56:19;12.82;;;9.75;;
55706;SDS011;41608;45.384;20.394;2022-09-01T03:58:45;14.27;;;10.93;;
55706;SDS011;41608;45.384;20.394;2022-09-01T04:01:12;14.60;;;10.25;;
55706;SDS011;41608;45.384;20.394;2022-09-01T04:03:38;13.93;;;10.55;;
55706;SDS011;41608;45.384;20.394;2022-09-01T04:06:06;14.77;;;10.15;;
55706;SDS011;41608;45.384;20.394;2022-09-01T04:08:32;15.77;;;11.18;;
55706;SDS011;41608;45.384;20.394;2022-09-01T04:11:01;16.38;;;11.88;;
55706;SDS011;41608;45.384;20.394;2022-09-01T04:13:38;17.65;;;11.38;;
55706;SDS011;41608;45.384;20.394;2022-09-01T04:16:05;15.45;;;11.13;;
55706;SDS011;41608;45.384;20.394;2022-09-01T04:18:34;16.27;;;12.48;;
55706;SDS011;41608;45.384;20.394;2022-09-01T04:21:01;14.93;;;11.35;;
55706;SDS011;41608;45.384;20.394;2022-09-01T04:23:30;8.75;;;6.63;;
55706;SDS011;41608;45.384;20.394;2022-09-01T04:25:58;10.23;;;6.57;;
55706;SDS011;41608;45.384;20.394;2022-09-01T04:28:33;13.37;;;6.40;;
55706;SDS011;41608;45.384;20.394;2022-09-01T04:31:02;15.13;;;8.43;;
55706;SDS011;41608;45.384;20.394;2022-09-01T04:33:30;11.05;;;4.05;;
55706;SDS011;41608;45.384;20.394;2022-09-01T04:36:00;11.05;;;5.78;;
55706;SDS011;41608;45.384;20.394;2022-09-01T04:38:27;8.88;;;5.65;;
55706;SDS011;41608;45.384;20.394;2022-09-01T04:40:54;6.40;;;4.40;;
55706;SDS011;41608;45.384;20.394;2022-09-01T04:43:24;7.10;;;3.80;;
55706;SDS011;41608;45.384;20.394;2022-09-01T04:45:51;5.40;;;3.47;;
55706;SDS011;41608;45.384;20.394;2022-09-01T04:48:18;5.10;;;3.25;;
55706;SDS011;41608;45.384;20.394;2022-09-01T04:50:46;3.67;;;3.08;;
55706;SDS011;41608;45.384;20.394;2022-09-01T04:53:13;8.95;;;4.38;;
55706;SDS011;41608;45.384;20.394;2022-09-01T04:55:42;8.18;;;3.67;;
55706;SDS011;41608;45.384;20.394;2022-09-01T04:58:09;4.55;;;3.42;;
55706;SDS011;41608;45.384;20.394;2022-09-01T05:00:41;4.95;;;3.00;;
55706;SDS011;41608;45.384;20.394;2022-09-01T05:03:09;4.60;;;2.60;;
55706;SDS011;41608;45.384;20.394;2022-09-01T05:05:36;4.45;;;3.28;;
55706;SDS011;41608;45.384;20.394;2022-09-01T05:08:11;4.60;;;3.10;;
55706;SDS011;41608;45.384;20.394;2022-09-01T05:10:40;4.18;;;3.03;;
55706;SDS011;41608;45.384;20.394;2022-09-01T05:13:08;3.30;;;2.22;;
55706;SDS011;41608;45.384;20.394;2022-09-01T05:15:35;5.82;;;2.55;;
55706;SDS011;41608;45.384;20.394;2022-09-01T05:18:02;3.58;;;2.65;;
55706;SDS011;41608;45.384;20.394;2022-09-01T05:20:38;6.47;;;3.45;;
55706;SDS011;41608;45.384;20.394;2022-09-01T05:23:06;4.82;;;3.10;;
55706;SDS011;41608;45.384;20.394;2022-09-01T05:25:36;5.20;;;3.10;;
55706;SDS011;41608;45.384;20.394;2022-09-01T05:28:03;5.35;;;2.95;;
55706;SDS011;41608;45.384;20.394;2022-09-01T05:30:29;5.55;;;3.58;;
55706;SDS011;41608;45.384;20.394;2022-09-01T05:32:59;6.47;;;3.50;;
55706;SDS011;41608;45.384;20.394;2022-09-01T05:35:25;5.22;;;3.45;;
55706;SDS011;41608;45.384;20.394;2022-09-01T05:37:55;6.95;;;3.67;;
55706;SDS011;41608;45.384;20.394;2022-09-01T05:40:22;3.25;;;2.65;;
55706;SDS011;41608;45.384;20.394;2022-09-01T05:42:51;5.72;;;3.20;;
55706;SDS011;41608;45.384;20.394;2022-09-01T05:45:20;7.03;;;2.13;;
55706;SDS011;41608;45.384;20.394;2022-09-01T05:47:48;7.47;;;4.07;;
55706;SDS011;41608;45.384;20.394;2022-09-01T05:50:16;3.15;;;1.58;;
55706;SDS011;41608;45.384;20.394;2022-09-01T05:52:43;7.55;;;2.40;;
55706;SDS011;41608;45.384;20.394;2022-09-01T05:55:12;5.22;;;2.08;;
55706;SDS011;41608;45.384;20.394;2022-09-01T05:57:39;6.32;;;2.88;;
55706;SDS011;41608;45.384;20.394;2022-09-01T06:00:07;4.88;;;2.90;;
55706;SDS011;41608;45.384;20.394;2022-09-01T06:02:36;4.63;;;1.98;;
55706;SDS011;41608;45.384;20.394;2022-09-01T06:05:03;7.10;;;2.20;;
55706;SDS011;41608;45.384;20.394;2022-09-01T06:07:32;27.27;;;2.63;;
55706;SDS011;41608;45.384;20.394;2022-09-01T06:10:02;3.42;;;1.90;;
55706;SDS011;41608;45.384;20.394;2022-09-01T06:12:28;9.30;;;2.85;;
55706;SDS011;41608;45.384;20.394;2022-09-01T06:14:54;4.88;;;2.10;;
55706;SDS011;41608;45.384;20.394;2022-09-01T06:17:22;4.78;;;2.20;;
55706;SDS011;41608;45.384;20.394;2022-09-01T06:19:51;7.63;;;2.40;;
55706;SDS011;41608;45.384;20.394;2022-09-01T06:22:19;7.65;;;2.53;;
55706;SDS011;41608;45.384;20.394;2022-09-01T06:24:45;12.68;;;2.50;;
55706;SDS011;41608;45.384;20.394;2022-09-01T06:27:12;4.65;;;2.17;;
55706;SDS011;41608;45.384;20.394;2022-09-01T06:29:42;9.02;;;2.92;;
55706;SDS011;41608;45.384;20.394;2022-09-01T06:32:09;4.78;;;2.92;;
55706;SDS011;41608;45.384;20.394;2022-09-01T06:34:40;5.15;;;2.25;;
55706;SDS011;41608;45.384;20.394;2022-09-01T06:37:07;5.03;;;1.70;;
55706;SDS011;41608;45.384;20.394;2022-09-01T06:39:34;6.63;;;2.08;;
55706;SDS011;41608;45.384;20.394;2022-09-01T06:42:00;10.70;;;4.03;;
55706;SDS011;41608;45.384;20.394;2022-09-01T06:44:27;4.63;;;2.42;;
55706;SDS011;41608;45.384;20.394;2022-09-01T06:46:56;4.68;;;2.30;;
55706;SDS011;41608;45.384;20.394;2022-09-01T06:49:23;11.07;;;2.55;;
55706;SDS011;41608;45.384;20.394;2022-09-01T06:51:56;3.55;;;2.05;;
55706;SDS011;41608;45.384;20.394;2022-09-01T06:54:22;6.88;;;2.20;;
55706;SDS011;41608;45.384;20.394;2022-09-01T06:56:49;4.00;;;2.03;;
55706;SDS011;41608;45.384;20.394;2022-09-01T06:59:17;8.77;;;2.20;;
55706;SDS011;41608;45.384;20.394;2022-09-01T07:01:45;3.33;;;1.88;;
55706;SDS011;41608;45.384;20.394;2022-09-01T07:04:12;5.07;;;3.22;;
55706;SDS011;41608;45.384;20.394;2022-09-01T07:06:44;5.68;;;2.17;;
55706;SDS011;41608;45.384;20.394;2022-09-01T07:09:14;9.40;;;2.78;;
55706;SDS011;41608;45.384;20.394;2022-09-01T07:11:40;9.00;;;2.20;;
55706;SDS011;41608;45.384;20.394;2022-09-01T07:14:06;5.03;;;2.72;;
55706;SDS011;41608;45.384;20.394;2022-09-01T07:16:34;14.13;;;3.65;;
55706;SDS011;41608;45.384;20.394;2022-09-01T07:19:04;9.20;;;3.83;;
55706;SDS011;41608;45.384;20.394;2022-09-01T07:21:39;7.30;;;3.15;;
55706;SDS011;41608;45.384;20.394;2022-09-01T07:24:11;4.68;;;2.22;;
55706;SDS011;41608;45.384;20.394;2022-09-01T07:26:38;7.20;;;3.22;;
55706;SDS011;41608;45.384;20.394;2022-09-01T07:29:05;9.88;;;3.50;;
55706;SDS011;41608;45.384;20.394;2022-09-01T07:31:35;8.25;;;3.78;;
55706;SDS011;41608;45.384;20.394;2022-09-01T07:34:04;11.00;;;3.83;;
55706;SDS011;41608;45.384;20.394;2022-09-01T07:36:30;10.43;;;4.07;;
55706;SDS011;41608;45.384;20.394;2022-09-01T07:38:57;7.45;;;4.15;;
55706;SDS011;41608;45.384;20.394;2022-09-01T07:41:25;6.38;;;3.35;;
55706;SDS011;41608;45.384;20.394;2022-09-01T07:43:52;10.65;;;3.83;;
55706;SDS011;41608;45.384;20.394;2022-09-01T07:46:21;5.97;;;3.30;;
55706;SDS011;41608;45.384;20.394;2022-09-01T07:48:47;7.55;;;3.25;;
55706;SDS011;41608;45.384;20.394;2022-09-01T07:51:14;6.20;;;3.55;;
55706;SDS011;41608;45.384;20.394;2022-09-01T07:53:43;8.77;;;4.70;;
55706;SDS011;41608;45.384;20.394;2022-09-01T07:56:10;6.15;;;3.50;;
55706;SDS011;41608;45.384;20.394;2022-09-01T07:58:37;12.00;;;4.07;;
55706;SDS011;41608;45.384;20.394;2022-09-01T08:01:09;13.15;;;6.72;;
55706;SDS011;41608;45.384;20.394;2022-09-01T08:03:36;15.57;;;7.60;;
55706;SDS011;41608;45.384;20.394;2022-09-01T08:06:04;20.00;;;10.10;;
55706;SDS011;41608;45.384;20.394;2022-09-01T08:08:31;16.55;;;9.63;;
55706;SDS011;41608;45.384;20.394;2022-09-01T08:10:58;23.77;;;8.93;;
55706;SDS011;41608;45.384;20.394;2022-09-01T08:13:24;11.18;;;6.38;;
55706;SDS011;41608;45.384;20.394;2022-09-01T08:15:50;11.63;;;7.55;;
55706;SDS011;41608;45.384;20.394;2022-09-01T08:18:16;5.88;;;4.25;;
55706;SDS011;41608;45.384;20.394;2022-09-01T08:20:43;10.13;;;6.00;;
55706;SDS011;41608;45.384;20.394;2022-09-01T08:23:10;11.57;;;4.60;;
55706;SDS011;41608;45.384;20.394;2022-09-01T08:25:37;5.25;;;3.97;;
55706;SDS011;41608;45.384;20.394;2022-09-01T08:28:03;8.35;;;5.20;;
55706;SDS011;41608;45.384;20.394;2022-09-01T08:30:30;8.68;;;5.95;;
55706;SDS011;41608;45.384;20.394;2022-09-01T08:32:56;11.50;;;7.63;;
55706;SDS011;41608;45.384;20.394;2022-09-01T08:35:23;12.70;;;9.18;;
55706;SDS011;41608;45.384;20.394;2022-09-01T08:37:49;12.23;;;8.63;;
55706;SDS011;41608;45.384;20.394;2022-09-01T08:40:16;13.27;;;8.77;;
55706;SDS011;41608;45.384;20.394;2022-09-01T08:45:31;8.93;;;5.57;;
55706;SDS011;41608;45.384;20.394;2022-09-01T08:48:08;7.10;;;5.07;;
55706;SDS011;41608;45.384;20.394;2022-09-01T08:50:35;13.85;;;5.97;;
55706;SDS011;41608;45.384;20.394;2022-09-01T08:53:04;5.72;;;4.60;;
55706;SDS011;41608;45.384;20.394;2022-09-01T08:55:35;8.43;;;4.35;;
55706;SDS011;41608;45.384;20.394;2022-09-01T08:58:04;12.65;;;4.20;;
55706;SDS011;41608;45.384;20.394;2022-09-01T09:00:32;5.88;;;3.55;;
55706;SDS011;41608;45.384;20.394;2022-09-01T09:11:02;7.00;;;3.42;;
55706;SDS011;41608;45.384;20.394;2022-09-01T09:16:00;4.75;;;3.20;;
55706;SDS011;41608;45.384;20.394;2022-09-01T09:21:11;9.30;;;4.57;;
55706;SDS011;41608;45.384;20.394;2022-09-01T09:23:39;5.47;;;3.17;;
55706;SDS011;41608;45.384;20.394;2022-09-01T09:26:06;5.95;;;2.85;;
55706;SDS011;41608;45.384;20.394;2022-09-01T09:28:32;6.28;;;4.18;;
55706;SDS011;41608;45.384;20.394;2022-09-01T09:33:43;4.90;;;3.33;;
55706;SDS011;41608;45.384;20.394;2022-09-01T09:36:17;5.93;;;3.58;;
55706;SDS011;41608;45.384;20.394;2022-09-01T09:38:43;7.68;;;3.50;;
55706;SDS011;41608;45.384;20.394;2022-09-01T09:41:16;10.48;;;4.50;;
55706;SDS011;41608;45.384;20.394;2022-09-01T09:44:00;6.70;;;4.00;;
55706;SDS011;41608;45.384;20.394;2022-09-01T09:49:07;6.32;;;3.13;;
55706;SDS011;41608;45.384;20.394;2022-09-01T09:51:34;7.57;;;3.58;;
55706;SDS011;41608;45.384;20.394;2022-09-01T09:54:14;9.23;;;2.88;;
55706;SDS011;41608;45.384;20.394;2022-09-01T09:56:43;10.55;;;3.60;;
55706;SDS011;41608;45.384;20.394;2022-09-01T09:59:17;5.65;;;3.35;;
55706;SDS011;41608;45.384;20.394;2022-09-01T10:01:47;6.35;;;3.15;;
55706;SDS011;41608;45.384;20.394;2022-09-01T10:07:28;8.82;;;3.90;;
55706;SDS011;41608;45.384;20.394;2022-09-01T10:09:56;9.68;;;4.43;;
55706;SDS011;41608;45.384;20.394;2022-09-01T10:12:24;5.80;;;4.05;;
55706;SDS011;41608;45.384;20.394;2022-09-01T10:14:54;10.50;;;4.78;;
55706;SDS011;41608;45.384;20.394;2022-09-01T10:17:28;7.68;;;4.85;;
55706;SDS011;41608;45.384;20.394;2022-09-01T10:19:59;8.07;;;4.70;;
55706;SDS011;41608;45.384;20.394;2022-09-01T10:22:31;7.00;;;4.82;;
55706;SDS011;41608;45.384;20.394;2022-09-01T10:24:58;9.00;;;4.72;;
55706;SDS011;41608;45.384;20.394;2022-09-01T10:27:29;9.02;;;3.72;;
55706;SDS011;41608;45.384;20.394;2022-09-01T10:32:36;6.43;;;4.40;;
55706;SDS011;41608;45.384;20.394;2022-09-01T10:35:07;7.50;;;5.43;;
55706;SDS011;41608;45.384;20.394;2022-09-01T10:37:33;5.15;;;3.85;;
55706;SDS011;41608;45.384;20.394;2022-09-01T10:40:10;10.05;;;4.68;;
55706;SDS011;41608;45.384;20.394;2022-09-01T10:42:40;8.35;;;4.95;;
55706;SDS011;41608;45.384;20.394;2022-09-01T10:45:14;6.22;;;4.57;;
55706;SDS011;41608;45.384;20.394;2022-09-01T10:47:41;7.85;;;4.30;;
55706;SDS011;41608;45.384;20.394;2022-09-01T10:50:30;4.35;;;2.95;;
55706;SDS011;41608;45.384;20.394;2022-09-01T10:53:04;8.85;;;4.93;;
55706;SDS011;41608;45.384;20.394;2022-09-01T10:55:34;11.05;;;4.75;;
55706;SDS011;41608;45.384;20.394;2022-09-01T10:58:18;8.63;;;4.93;;
55706;SDS011;41608;45.384;20.394;2022-09-01T11:00:48;6.57;;;4.22;;
55706;SDS011;41608;45.384;20.394;2022-09-01T11:08:39;7.10;;;4.53;;
55706;SDS011;41608;45.384;20.394;2022-09-01T11:13:35;8.10;;;4.45;;
55706;SDS011;41608;45.384;20.394;2022-09-01T11:18:47;6.85;;;5.03;;
55706;SDS011;41608;45.384;20.394;2022-09-01T11:21:15;8.75;;;4.97;;
55706;SDS011;41608;45.384;20.394;2022-09-01T11:23:42;7.80;;;4.93;;
55706;SDS011;41608;45.384;20.394;2022-09-01T11:31:59;6.47;;;5.25;;
55706;SDS011;41608;45.384;20.394;2022-09-01T11:34:25;7.05;;;5.97;;
55706;SDS011;41608;45.384;20.394;2022-09-01T11:36:56;7.50;;;5.03;;
55706;SDS011;41608;45.384;20.394;2022-09-01T11:39:29;5.55;;;4.78;;
55706;SDS011;41608;45.384;20.394;2022-09-01T11:42:09;7.43;;;4.40;;
55706;SDS011;41608;45.384;20.394;2022-09-01T11:44:43;7.75;;;4.90;;
55706;SDS011;41608;45.384;20.394;2022-09-01T11:47:14;8.27;;;4.78;;
55706;SDS011;41608;45.384;20.394;2022-09-01T11:52:20;8.98;;;5.93;;
55706;SDS011;41608;45.384;20.394;2022-09-01T11:54:46;8.57;;;5.18;;
55706;SDS011;41608;45.384;20.394;2022-09-01T11:57:23;9.50;;;6.72;;
55706;SDS011;41608;45.384;20.394;2022-09-01T11:59:52;8.00;;;5.45;;
55706;SDS011;41608;45.384;20.394;2022-09-01T12:02:22;8.43;;;5.00;;
55706;SDS011;41608;45.384;20.394;2022-09-01T12:04:49;7.57;;;4.75;;
55706;SDS011;41608;45.384;20.394;2022-09-01T12:07:26;8.02;;;5.15;;
55706;SDS011;41608;45.384;20.394;2022-09-01T12:09:55;9.70;;;5.03;;
55706;SDS011;41608;45.384;20.394;2022-09-01T12:12:26;8.10;;;5.07;;
55706;SDS011;41608;45.384;20.394;2022-09-01T12:15:00;7.88;;;5.07;;
55706;SDS011;41608;45.384;20.394;2022-09-01T12:17:27;8.98;;;4.97;;
55706;SDS011;41608;45.384;20.394;2022-09-01T12:19:53;11.00;;;6.45;;
55706;SDS011;41608;45.384;20.394;2022-09-01T12:22:19;9.77;;;5.50;;
55706;SDS011;41608;45.384;20.394;2022-09-01T12:24:50;7.88;;;5.05;;
55706;SDS011;41608;45.384;20.394;2022-09-01T12:27:17;13.18;;;6.13;;
55706;SDS011;41608;45.384;20.394;2022-09-01T12:29:43;8.75;;;4.07;;
55706;SDS011;41608;45.384;20.394;2022-09-01T12:32:09;10.23;;;5.32;;
55706;SDS011;41608;45.384;20.394;2022-09-01T12:34:40;3.83;;;2.33;;
55706;SDS011;41608;45.384;20.394;2022-09-01T12:39:43;9.85;;;5.70;;
55706;SDS011;41608;45.384;20.394;2022-09-01T12:44:58;10.25;;;5.22;;
55706;SDS011;41608;45.384;20.394;2022-09-01T12:49:58;6.18;;;3.72;;
55706;SDS011;41608;45.384;20.394;2022-09-01T12:52:25;8.65;;;4.60;;
55706;SDS011;41608;45.384;20.394;2022-09-01T12:57:25;6.78;;;4.95;;
55706;SDS011;41608;45.384;20.394;2022-09-01T13:02:32;8.98;;;4.50;;
55706;SDS011;41608;45.384;20.394;2022-09-01T13:07:45;12.15;;;5.78;;
55706;SDS011;41608;45.384;20.394;2022-09-01T13:10:11;10.77;;;4.95;;
55706;SDS011;41608;45.384;20.394;2022-09-01T13:12:40;6.30;;;5.05;;
55706;SDS011;41608;45.384;20.394;2022-09-01T13:15:10;3.80;;;3.03;;
55706;SDS011;41608;45.384;20.394;2022-09-01T13:17:36;7.55;;;3.40;;
55706;SDS011;41608;45.384;20.394;2022-09-01T13:20:03;6.72;;;4.18;;
55706;SDS011;41608;45.384;20.394;2022-09-01T13:22:29;7.80;;;5.43;;
55706;SDS011;41608;45.384;20.394;2022-09-01T13:24:55;8.15;;;4.93;;
55706;SDS011;41608;45.384;20.394;2022-09-01T13:27:21;7.57;;;4.55;;
55706;SDS011;41608;45.384;20.394;2022-09-01T13:29:48;9.05;;;4.85;;
55706;SDS011;41608;45.384;20.394;2022-09-01T13:32:14;5.55;;;3.38;;
55706;SDS011;41608;45.384;20.394;2022-09-01T13:34:41;7.45;;;5.07;;
55706;SDS011;41608;45.384;20.394;2022-09-01T13:37:07;9.93;;;5.30;;
55706;SDS011;41608;45.384;20.394;2022-09-01T13:39:33;8.57;;;4.50;;
55706;SDS011;41608;45.384;20.394;2022-09-01T13:41:59;6.00;;;4.40;;
55706;SDS011;41608;45.384;20.394;2022-09-01T13:44:26;8.23;;;4.65;;
55706;SDS011;41608;45.384;20.394;2022-09-01T13:46:52;10.40;;;5.85;;
55706;SDS011;41608;45.384;20.394;2022-09-01T13:49:19;12.32;;;6.15;;
55706;SDS011;41608;45.384;20.394;2022-09-01T13:51:51;6.43;;;4.05;;
55706;SDS011;41608;45.384;20.394;2022-09-01T13:54:18;9.15;;;4.80;;
55706;SDS011;41608;45.384;20.394;2022-09-01T13:56:44;9.68;;;6.35;;
55706;SDS011;41608;45.384;20.394;2022-09-01T13:59:10;7.10;;;5.38;;
55706;SDS011;41608;45.384;20.394;2022-09-01T14:01:36;7.88;;;5.35;;
55706;SDS011;41608;45.384;20.394;2022-09-01T14:04:05;10.10;;;5.47;;
55706;SDS011;41608;45.384;20.394;2022-09-01T14:06:31;7.68;;;5.40;;
55706;SDS011;41608;45.384;20.394;2022-09-01T14:08:57;6.82;;;4.40;;
55706;SDS011;41608;45.384;20.394;2022-09-01T14:11:24;6.07;;;3.35;;
55706;SDS011;41608;45.384;20.394;2022-09-01T14:13:51;9.57;;;5.03;;
55706;SDS011;41608;45.384;20.394;2022-09-01T14:16:20;6.38;;;4.78;;
55706;SDS011;41608;45.384;20.394;2022-09-01T14:18:46;8.32;;;5.18;;
55706;SDS011;41608;45.384;20.394;2022-09-01T14:21:13;7.70;;;4.65;;
55706;SDS011;41608;45.384;20.394;2022-09-01T14:23:40;14.13;;;5.97;;
55706;SDS011;41608;45.384;20.394;2022-09-01T14:26:08;13.02;;;6.25;;
55706;SDS011;41608;45.384;20.394;2022-09-01T14:28:35;7.50;;;5.13;;
55706;SDS011;41608;45.384;20.394;2022-09-01T14:31:05;11.52;;;5.03;;
55706;SDS011;41608;45.384;20.394;2022-09-01T14:33:32;7.93;;;4.88;;
55706;SDS011;41608;45.384;20.394;2022-09-01T14:35:58;3.90;;;2.30;;
55706;SDS011;41608;45.384;20.394;2022-09-01T14:38:24;7.93;;;5.45;;
55706;SDS011;41608;45.384;20.394;2022-09-01T14:40:50;3.97;;;2.45;;
55706;SDS011;41608;45.384;20.394;2022-09-01T14:43:17;7.20;;;4.75;;
55706;SDS011;41608;45.384;20.394;2022-09-01T14:45:43;7.05;;;4.57;;
55706;SDS011;41608;45.384;20.394;2022-09-01T14:48:11;7.68;;;5.05;;
55706;SDS011;41608;45.384;20.394;2022-09-01T14:50:39;10.50;;;5.43;;
55706;SDS011;41608;45.384;20.394;2022-09-01T14:53:06;7.15;;;4.60;;
55706;SDS011;41608;45.384;20.394;2022-09-01T14:55:33;6.47;;;4.20;;
55706;SDS011;41608;45.384;20.394;2022-09-01T14:57:59;5.70;;;3.90;;
55706;SDS011;41608;45.384;20.394;2022-09-01T15:00:28;8.63;;;4.95;;
55706;SDS011;41608;45.384;20.394;2022-09-01T15:02:56;5.15;;;3.80;;
55706;SDS011;41608;45.384;20.394;2022-09-01T15:05:22;9.70;;;4.80;;
55706;SDS011;41608;45.384;20.394;2022-09-01T15:07:48;8.05;;;4.40;;
55706;SDS011;41608;45.384;20.394;2022-09-01T15:10:16;4.65;;;3.58;;
55706;SDS011;41608;45.384;20.394;2022-09-01T15:12:42;7.20;;;5.15;;
55706;SDS011;41608;45.384;20.394;2022-09-01T15:15:09;7.22;;;3.80;;
55706;SDS011;41608;45.384;20.394;2022-09-01T15:17:40;8.23;;;5.78;;
55706;SDS011;41608;45.384;20.394;2022-09-01T15:20:06;8.77;;;6.07;;
55706;SDS011;41608;45.384;20.394;2022-09-01T15:22:51;8.82;;;4.95;;
55706;SDS011;41608;45.384;20.394;2022-09-01T15:25:17;8.15;;;5.38;;
55706;SDS011;41608;45.384;20.394;2022-09-01T15:27:43;6.45;;;4.18;;
55706;SDS011;41608;45.384;20.394;2022-09-01T15:30:10;4.43;;;3.08;;
55706;SDS011;41608;45.384;20.394;2022-09-01T15:32:41;5.97;;;4.25;;
55706;SDS011;41608;45.384;20.394;2022-09-01T15:35:08;9.23;;;5.15;;
55706;SDS011;41608;45.384;20.394;2022-09-01T15:37:34;4.28;;;3.17;;
55706;SDS011;41608;45.384;20.394;2022-09-01T15:40:04;6.20;;;4.50;;
55706;SDS011;41608;45.384;20.394;2022-09-01T15:42:31;8.68;;;4.72;;
55706;SDS011;41608;45.384;20.394;2022-09-01T15:44:58;9.63;;;4.55;;